»·PEaware :: N5435W KSBP-KSMX

N5435W :: KSBP-KSMX

FLIGHT INFORMATION

Flight Status: Arrived
Operator: Privately registered:
United States
More flights under this callsign
Pilot: Anonymous 23155 (23155)
Aircraft: PIPER PA-28R-201 ARROW
(P28R)
More flights by this aircraft type
Origin: KSBP San Luis Co Regl
United States
Destination: KSMX Santa Maria Pub/Capt Hancock
United States
More flights between these airports :: More routes between these airports
Route: VFR NAVIATION WITH GPS BACKUP
File this flight plan on PilotEdge
Remarks: CAT 4 Rating
Altitude:
(Current/Filed)
2,500ft
Speed:
(Current/Filed)
100kts
Departed: 30-Jan-19 10:33 PM
Arrived: 30-Jan-19 10:50 PM
Distance/Time
Traveled:
22nm/0:17
Distance/Time
To Go:
Arrived

Flight Plot

Page will automatically refresh every two minutes.

Flight plan parsing failed; only flown route is shown


Map Options




Map Legend


Flown Route
Filed Route
Departure Airport
Arrival Airport
Navaid (VOR, NDB)
Fix

Horizontal Profiles

Position Reports

Time Latitude Longitude Heading Altitude Ground
Speed
30-Jan-19 22:08 35.237971 -120.638231 63 215ft 0kts
30-Jan-19 22:09 35.237971 -120.638231 63 215ft 0kts
30-Jan-19 22:10 35.237971 -120.638231 63 215ft 0kts
30-Jan-19 22:11 35.237971 -120.638231 63 215ft 0kts
30-Jan-19 22:12 35.237971 -120.638231 63 215ft 0kts
30-Jan-19 22:13 35.237971 -120.638231 63 215ft 0kts
30-Jan-19 22:14 35.237971 -120.638231 63 215ft 0kts
30-Jan-19 22:15 35.237971 -120.638231 63 215ft 0kts
30-Jan-19 22:16 35.237971 -120.638231 63 215ft 0kts
30-Jan-19 22:17 35.237971 -120.638231 63 215ft 0kts
30-Jan-19 22:18 35.237971 -120.638231 63 215ft 0kts
30-Jan-19 22:19 35.237971 -120.638231 63 215ft 0kts
30-Jan-19 22:20 35.237971 -120.638231 63 215ft 0kts
30-Jan-19 22:21 35.237971 -120.638231 63 215ft 0kts
30-Jan-19 22:22 35.237971 -120.638231 63 215ft 0kts
30-Jan-19 22:23 35.237971 -120.638231 63 215ft 0kts
30-Jan-19 22:24 35.237971 -120.638231 63 215ft 0kts
30-Jan-19 22:25 35.237971 -120.638231 63 215ft 0kts
30-Jan-19 22:26 35.237971 -120.638231 63 215ft 0kts
30-Jan-19 22:27 35.237895 -120.638493 186 215ft 0kts
30-Jan-19 22:28 35.237399 -120.637769 99 215ft 16kts
30-Jan-19 22:29 35.234346 -120.633866 125 215ft 21kts
30-Jan-19 22:30 35.233171 -120.632366 217 215ft 0kts
30-Jan-19 22:31 35.233143 -120.633652 305 215ft 26kts
30-Jan-19 22:32 35.247237 -120.654945 303 1248ft 94kts
30-Jan-19 22:33 35.228164 -120.677160 207 2301ft 111kts
30-Jan-19 22:34 35.198982 -120.693010 199 3018ft 125kts
30-Jan-19 22:35 35.166003 -120.683407 138 2867ft 142kts
30-Jan-19 22:36 35.136919 -120.651829 138 2469ft 133kts
30-Jan-19 22:37 35.109443 -120.622751 135 2461ft 126kts
30-Jan-19 22:38 35.085127 -120.591778 132 2583ft 125kts
30-Jan-19 22:39 35.062024 -120.559699 132 2722ft 126kts
30-Jan-19 22:40 35.034728 -120.532806 146 2846ft 126kts
30-Jan-19 22:41 35.004744 -120.510650 155 2951ft 127kts
30-Jan-19 22:42 34.971319 -120.500203 188 2748ft 126kts
30-Jan-19 22:43 34.940899 -120.511660 196 2495ft 105kts
30-Jan-19 22:44 34.914000 -120.505662 149 1832ft 96kts
30-Jan-19 22:45 34.893661 -120.484313 130 1549ft 86kts
30-Jan-19 22:46 34.876923 -120.462506 131 1165ft 98kts
30-Jan-19 22:47 34.868180 -120.437786 42 987ft 85kts
30-Jan-19 22:48 34.887058 -120.439247 316 477ft 87kts
30-Jan-19 22:49 34.897602 -120.450274 0 264ft 0kts
30-Jan-19 22:50 34.899519 -120.451423 314 264ft 24kts
30-Jan-19 22:51 34.900368 -120.450122 92 264ft 0kts
30-Jan-19 22:52 34.900368 -120.450122 92 264ft 0kts
30-Jan-19 22:53 34.900368 -120.450122 92 264ft 0kts
30-Jan-19 22:54 34.900368 -120.450122 92 264ft 0kts
30-Jan-19 22:55 34.900368 -120.450122 92 264ft 0kts
30-Jan-19 22:56 34.900368 -120.450122 92 264ft 0kts
30-Jan-19 22:57 34.900368 -120.450122 92 264ft 0kts
30-Jan-19 22:58 34.900368 -120.450122 92 264ft 0kts
30-Jan-19 22:59 34.900368 -120.450122 92 264ft 0kts

Navigation Log

Ident Type
Flight plan parsing failed, navigation log unavailable